createdAt,value
2017-09-06T00:00:52.147Z,983.19
2017-09-06T00:02:02.564Z,983.17
2017-09-06T00:03:12.321Z,983.14
2017-09-06T00:04:22.743Z,983.08
2017-09-06T00:05:32.501Z,983.08
2017-09-06T00:06:42.916Z,983.04
2017-09-06T00:07:53.004Z,983.05
2017-09-06T00:09:03.092Z,983.04
2017-09-06T00:10:13.181Z,983.02
2017-09-06T00:11:23.599Z,983.03
2017-09-06T00:12:33.673Z,983.02
2017-09-06T00:13:43.942Z,983.02
2017-09-06T00:14:53.889Z,982.99
2017-09-06T00:16:04.155Z,983
2017-09-06T00:17:14.103Z,983.03
2017-09-06T00:18:24.371Z,983.05
2017-09-06T00:19:34.638Z,982.97
2017-09-06T00:20:44.909Z,982.97
2017-09-06T00:21:54.535Z,982.96
2017-09-06T00:23:04.801Z,982.94
2017-09-06T00:24:15.067Z,982.93
2017-09-06T00:25:25.334Z,983
2017-09-06T00:26:35.284Z,982.99
2017-09-06T00:27:45.552Z,982.9
2017-09-06T00:28:55.820Z,982.9
2017-09-06T00:30:06.089Z,982.89
2017-09-06T00:31:16.376Z,982.9
2017-09-06T00:32:26.645Z,982.9
2017-09-06T00:33:36.916Z,982.9
2017-09-06T00:34:46.862Z,982.88
2017-09-06T00:35:57.134Z,982.88
2017-09-06T00:37:07.410Z,982.81
2017-09-06T00:38:17.678Z,982.8
2017-09-06T00:39:27.943Z,982.8
2017-09-06T00:40:37.896Z,982.8
2017-09-06T00:41:47.847Z,982.76
2017-09-06T00:42:57.795Z,982.76
2017-09-06T00:44:08.069Z,982.77
2017-09-06T00:45:18.018Z,982.79
2017-09-06T00:46:28.284Z,982.77
2017-09-06T00:47:38.551Z,982.83
2017-09-06T00:48:48.854Z,982.84
2017-09-06T00:49:58.800Z,982.77
2017-09-06T00:51:09.079Z,982.82
2017-09-06T00:52:19.025Z,982.8
2017-09-06T00:53:28.968Z,982.79
2017-09-06T00:54:38.592Z,982.79
2017-09-06T00:55:48.861Z,982.81
2017-09-06T00:56:58.815Z,982.8
2017-09-06T00:58:09.091Z,982.79
2017-09-06T00:59:19.359Z,982.76
2017-09-06T01:00:29.627Z,982.72
2017-09-06T01:01:39.893Z,982.69
2017-09-06T01:02:49.543Z,982.73
2017-09-06T01:03:59.812Z,982.69
2017-09-06T01:05:10.080Z,982.72
2017-09-06T01:06:20.380Z,982.75
2017-09-06T01:07:30.326Z,982.68
2017-09-06T01:08:40.272Z,982.73
2017-09-06T01:09:50.219Z,982.66
2017-09-06T01:11:00.167Z,982.68
2017-09-06T01:12:09.797Z,982.65
2017-09-06T01:13:20.072Z,982.61
2017-09-06T01:14:30.019Z,982.67
2017-09-06T01:15:40.293Z,982.62
2017-09-06T01:16:50.559Z,982.64
2017-09-06T01:18:00.866Z,982.61
2017-09-06T01:19:11.135Z,982.62
2017-09-06T01:20:21.408Z,982.55
2017-09-06T01:21:31.361Z,982.54
2017-09-06T01:22:41.628Z,982.55
2017-09-06T01:23:51.900Z,982.56
2017-09-06T01:25:01.856Z,982.53
2017-09-06T01:26:12.131Z,982.5
2017-09-06T01:27:22.503Z,982.51
2017-09-06T01:28:32.776Z,982.48
2017-09-06T01:29:42.733Z,982.46
2017-09-06T01:30:52.675Z,982.51
2017-09-06T01:32:02.622Z,982.47
2017-09-06T01:33:14.820Z,982.44
2017-09-06T01:34:25.088Z,982.4
2017-09-06T01:35:35.034Z,982.44
2017-09-06T01:36:45.300Z,982.43
2017-09-06T01:37:55.574Z,982.46
2017-09-06T01:39:05.993Z,982.4
2017-09-06T01:40:16.263Z,982.39
2017-09-06T01:41:26.214Z,982.35
2017-09-06T01:42:36.162Z,982.31
2017-09-06T01:43:46.431Z,982.31
2017-09-06T01:44:57.048Z,982.31
2017-09-06T01:46:07.316Z,982.36
2017-09-06T01:47:17.263Z,982.33
2017-09-06T01:48:27.209Z,982.3
2017-09-06T01:49:37.476Z,982.34
2017-09-06T01:50:51.531Z,982.32
2017-09-06T01:52:01.479Z,982.29
2017-09-06T01:53:11.745Z,982.33
2017-09-06T01:54:22.015Z,982.29
2017-09-06T01:55:31.961Z,982.37
2017-09-06T01:56:42.226Z,982.33
2017-09-06T01:57:52.501Z,982.31
2017-09-06T01:59:02.768Z,982.3
2017-09-06T02:00:12.391Z,982.3
2017-09-06T02:01:22.661Z,982.31
2017-09-06T02:02:32.928Z,982.31
2017-09-06T02:03:43.194Z,982.31
2017-09-06T02:04:53.138Z,982.23
2017-09-06T02:06:03.084Z,982.24
2017-09-06T02:07:12.709Z,982.24
2017-09-06T02:08:22.659Z,982.27
2017-09-06T02:09:32.925Z,982.22
2017-09-06T02:10:43.192Z,982.27
2017-09-06T02:11:53.462Z,982.26
2017-09-06T02:13:03.730Z,982.21
2017-09-06T02:14:13.998Z,982.22
2017-09-06T02:15:23.946Z,982.21
2017-09-06T02:16:34.220Z,982.27
2017-09-06T02:17:44.504Z,982.24
2017-09-06T02:18:54.771Z,982.32
2017-09-06T02:20:05.050Z,982.28
2017-09-06T02:21:14.996Z,982.29
2017-09-06T02:22:25.262Z,982.28
2017-09-06T02:23:35.209Z,982.29
2017-09-06T02:24:45.474Z,982.28
2017-09-06T02:25:55.750Z,982.25
2017-09-06T02:27:05.375Z,982.3
2017-09-06T02:28:15.642Z,982.25
2017-09-06T02:29:25.908Z,982.2
2017-09-06T02:30:36.182Z,982.23
2017-09-06T02:31:46.129Z,982.19
2017-09-06T02:32:56.089Z,982.14
2017-09-06T02:34:06.363Z,982.2
2017-09-06T02:35:16.307Z,982.21
2017-09-06T02:36:26.257Z,982.2
2017-09-06T02:37:36.535Z,982.17
2017-09-06T02:38:46.802Z,982.19
2017-09-06T02:39:56.747Z,982.21
2017-09-06T02:41:07.015Z,982.17
2017-09-06T02:42:17.297Z,982.2
2017-09-06T02:43:27.575Z,982.22
2017-09-06T02:44:37.855Z,982.18
2017-09-06T02:45:48.122Z,982.21
2017-09-06T02:46:57.746Z,982.19
2017-09-06T02:48:08.025Z,982.25
2017-09-06T02:49:18.336Z,982.23
2017-09-06T02:50:28.612Z,982.16
2017-09-06T02:51:38.884Z,982.15
2017-09-06T02:52:48.836Z,982.15
2017-09-06T02:53:59.119Z,982.19
2017-09-06T02:55:09.400Z,982.16
2017-09-06T02:56:19.348Z,982.09
2017-09-06T02:57:29.333Z,982.14
2017-09-06T02:58:39.598Z,982.13
2017-09-06T02:59:49.864Z,982.12
2017-09-06T03:01:00.131Z,982.11
2017-09-06T03:02:10.398Z,982.1
2017-09-06T03:03:20.665Z,982.1
2017-09-06T03:04:30.646Z,982.14
2017-09-06T03:05:40.912Z,982.08
2017-09-06T03:06:51.176Z,982.06
2017-09-06T03:08:01.125Z,982.06
2017-09-06T03:09:11.073Z,982.11
2017-09-06T03:10:21.354Z,982.08
2017-09-06T03:11:31.619Z,982.11
2017-09-06T03:12:41.245Z,982.11
2017-09-06T03:13:51.518Z,982.06
2017-09-06T03:15:01.786Z,982.08
2017-09-06T03:16:12.061Z,982.05
2017-09-06T03:17:22.347Z,982.07
2017-09-06T03:18:32.289Z,982.06
2017-09-06T03:19:42.559Z,982.07
2017-09-06T03:20:52.826Z,982.13
2017-09-06T03:22:03.093Z,982.03
2017-09-06T03:23:13.359Z,982.07
2017-09-06T03:24:23.626Z,982.1
2017-09-06T03:25:33.905Z,982.01
2017-09-06T03:26:44.177Z,982.06
2017-09-06T03:27:53.802Z,981.98
2017-09-06T03:29:03.744Z,982.06
2017-09-06T03:30:14.010Z,982.08
2017-09-06T03:31:24.287Z,982.09
2017-09-06T03:32:34.562Z,982.12
2017-09-06T03:33:44.829Z,982.04
2017-09-06T03:34:54.776Z,982
2017-09-06T03:36:05.043Z,982.02
2017-09-06T03:37:14.995Z,981.98
2017-09-06T03:38:24.945Z,981.97
2017-09-06T03:39:34.888Z,981.98
2017-09-06T03:40:45.194Z,981.97
2017-09-06T03:41:55.470Z,981.94
2017-09-06T03:43:05.419Z,981.95
2017-09-06T03:44:15.684Z,981.92
2017-09-06T03:45:25.950Z,982
2017-09-06T03:46:35.898Z,981.96
2017-09-06T03:47:46.167Z,981.97
2017-09-06T03:48:56.434Z,981.96
2017-09-06T03:50:06.700Z,981.96
2017-09-06T03:51:16.323Z,981.94
2017-09-06T03:52:26.590Z,981.88
2017-09-06T03:53:36.861Z,981.87
2017-09-06T03:54:46.808Z,981.8
2017-09-06T03:55:56.762Z,981.84
2017-09-06T03:57:06.707Z,981.81
2017-09-06T03:58:16.972Z,981.81
2017-09-06T03:59:27.237Z,981.74
2017-09-06T04:00:37.185Z,981.7
2017-09-06T04:01:47.137Z,981.67
2017-09-06T04:02:57.407Z,981.72
2017-09-06T04:04:07.673Z,981.76
2017-09-06T04:05:17.940Z,981.76
2017-09-06T04:06:27.569Z,981.76
2017-09-06T04:07:37.513Z,981.67
2017-09-06T04:08:47.137Z,981.69
2017-09-06T04:09:57.405Z,981.69
2017-09-06T04:11:07.671Z,981.69
2017-09-06T04:12:17.976Z,981.64
2017-09-06T04:13:27.924Z,981.62
2017-09-06T04:14:37.869Z,981.69
2017-09-06T04:15:48.135Z,981.66
2017-09-06T04:16:58.079Z,981.63
2017-09-06T04:18:08.349Z,981.59
2017-09-06T04:19:18.296Z,981.57
2017-09-06T04:20:27.918Z,981.58
2017-09-06T04:21:37.862Z,981.56
2017-09-06T04:22:48.125Z,981.58
2017-09-06T04:23:58.427Z,981.58
2017-09-06T04:25:08.366Z,981.58
2017-09-06T04:26:17.989Z,981.59
2017-09-06T04:27:28.257Z,981.53
2017-09-06T04:28:38.205Z,981.59
2017-09-06T04:29:48.478Z,981.63
2017-09-06T04:30:58.744Z,981.62
2017-09-06T04:32:08.688Z,981.66
2017-09-06T04:33:18.632Z,981.7
2017-09-06T04:34:28.899Z,981.69
2017-09-06T04:35:39.164Z,981.75
2017-09-06T04:36:49.431Z,981.68
2017-09-06T04:37:59.699Z,981.7
2017-09-06T04:39:09.645Z,981.71
2017-09-06T04:40:19.591Z,981.66
2017-09-06T04:41:29.537Z,981.66
2017-09-06T04:42:39.481Z,981.68
2017-09-06T04:43:49.103Z,981.72
2017-09-06T04:44:59.054Z,981.73
2017-09-06T04:46:09.326Z,981.62
2017-09-06T04:47:19.272Z,981.66
2017-09-06T04:48:28.573Z,981.69
2017-09-06T04:49:38.839Z,981.71
2017-09-06T04:50:49.107Z,981.69
2017-09-06T04:51:59.378Z,981.65
2017-09-06T04:53:09.653Z,981.67
2017-09-06T04:54:19.929Z,981.69
2017-09-06T04:55:30.194Z,981.7
2017-09-06T04:56:40.140Z,981.66
2017-09-06T04:57:50.407Z,981.67
2017-09-06T04:59:00.351Z,981.69
2017-09-06T05:00:10.620Z,981.7
2017-09-06T05:01:20.888Z,981.72
2017-09-06T05:02:30.832Z,981.75
2017-09-06T05:03:40.459Z,981.66
2017-09-06T05:04:50.422Z,981.71
2017-09-06T05:06:00.690Z,981.68
2017-09-06T05:07:10.635Z,981.68
2017-09-06T05:08:20.588Z,981.7
2017-09-06T05:09:30.856Z,981.68
2017-09-06T05:10:41.135Z,981.67
2017-09-06T05:11:51.402Z,981.67
2017-09-06T05:13:01.379Z,981.78
2017-09-06T05:14:11.649Z,981.72
2017-09-06T05:15:21.915Z,981.69
2017-09-06T05:16:32.183Z,981.7
2017-09-06T05:17:42.172Z,981.7
2017-09-06T05:18:52.116Z,981.73
2017-09-06T05:20:02.075Z,981.77
2017-09-06T05:21:12.032Z,981.75
2017-09-06T05:22:22.299Z,981.72
2017-09-06T05:23:32.566Z,981.76
2017-09-06T05:24:42.837Z,981.7
2017-09-06T05:25:52.463Z,981.7
2017-09-06T05:27:02.737Z,981.71
2017-09-06T05:28:13.006Z,981.72
2017-09-06T05:29:23.272Z,981.79
2017-09-06T05:30:33.541Z,981.79
2017-09-06T05:31:43.804Z,981.8
2017-09-06T05:32:53.749Z,981.79
2017-09-06T05:34:04.017Z,981.83
2017-09-06T05:35:13.968Z,981.82
2017-09-06T05:36:24.239Z,981.84
2017-09-06T05:37:34.188Z,981.88
2017-09-06T05:38:44.132Z,981.87
2017-09-06T05:39:54.752Z,981.88
2017-09-06T05:41:05.019Z,981.82
2017-09-06T05:42:15.286Z,981.86
2017-09-06T05:43:25.569Z,981.94
2017-09-06T05:44:35.839Z,981.9
2017-09-06T05:45:45.461Z,981.8
2017-09-06T05:46:55.726Z,981.84
2017-09-06T05:48:05.991Z,981.84
2017-09-06T05:49:16.263Z,981.84
2017-09-06T05:50:26.534Z,981.85
2017-09-06T05:51:36.799Z,981.93
2017-09-06T05:52:46.742Z,981.86
2017-09-06T05:53:57.016Z,981.89
2017-09-06T05:55:07.290Z,981.83
2017-09-06T05:56:17.558Z,981.81
2017-09-06T05:57:27.511Z,981.84
2017-09-06T05:58:37.796Z,981.84
2017-09-06T05:59:48.074Z,981.8
2017-09-06T06:00:58.343Z,981.81
2017-09-06T06:02:08.306Z,981.8
2017-09-06T06:03:18.597Z,981.76
2017-09-06T06:04:28.864Z,981.67
2017-09-06T06:05:38.812Z,981.71
2017-09-06T06:06:48.756Z,981.77
2017-09-06T06:07:59.019Z,981.83
2017-09-06T06:09:09.289Z,981.81
2017-09-06T06:10:19.555Z,981.84
2017-09-06T06:11:29.820Z,981.83
2017-09-06T06:12:40.087Z,981.85
2017-09-06T06:13:50.363Z,981.8
2017-09-06T06:15:00.636Z,981.71
2017-09-06T06:16:10.595Z,981.68
2017-09-06T06:17:20.540Z,981.64
2017-09-06T06:18:31.143Z,981.63
2017-09-06T06:19:41.411Z,981.68
2017-09-06T06:20:51.676Z,981.69
2017-09-06T06:22:01.959Z,981.72
2017-09-06T06:23:11.939Z,981.69
2017-09-06T06:24:21.890Z,981.66
2017-09-06T06:25:32.156Z,981.62
2017-09-06T06:26:42.422Z,981.6
2017-09-06T06:27:52.688Z,981.62
2017-09-06T06:29:02.318Z,981.61
2017-09-06T06:30:12.586Z,981.6
2017-09-06T06:31:22.535Z,981.61
2017-09-06T06:32:32.808Z,981.58
2017-09-06T06:33:43.085Z,981.63
2017-09-06T06:34:52.717Z,981.58
2017-09-06T06:36:02.985Z,981.5
2017-09-06T06:37:12.609Z,981.5
2017-09-06T06:38:22.877Z,981.5
2017-09-06T06:39:33.150Z,981.56
2017-09-06T06:40:43.421Z,981.57
2017-09-06T06:41:53.058Z,981.56
2017-09-06T06:43:02.687Z,981.57
2017-09-06T06:44:11.986Z,981.55
2017-09-06T06:45:21.933Z,981.56
2017-09-06T06:46:32.203Z,981.58
2017-09-06T06:47:42.470Z,981.55
2017-09-06T06:48:52.749Z,981.56
2017-09-06T06:50:03.014Z,981.58
2017-09-06T06:51:12.642Z,981.56
2017-09-06T06:52:22.588Z,981.56
2017-09-06T06:53:32.856Z,981.6
2017-09-06T06:54:42.808Z,981.55
2017-09-06T06:55:53.074Z,981.58
2017-09-06T06:57:03.349Z,981.52
2017-09-06T06:58:12.988Z,981.55
2017-09-06T06:59:23.285Z,981.56
2017-09-06T07:00:33.236Z,981.55
2017-09-06T07:01:43.506Z,981.53
2017-09-06T07:02:53.448Z,981.54
2017-09-06T07:04:03.072Z,981.44
2017-09-06T07:05:13.346Z,981.41
2017-09-06T07:06:23.299Z,981.41
2017-09-06T07:07:33.564Z,981.43
2017-09-06T07:08:43.508Z,981.44
2017-09-06T07:09:53.131Z,981.46
2017-09-06T07:11:03.399Z,981.46
2017-09-06T07:12:13.665Z,981.47
2017-09-06T07:13:23.938Z,981.48
2017-09-06T07:14:34.234Z,981.47
2017-09-06T07:15:44.501Z,981.49
2017-09-06T07:16:54.451Z,981.48
2017-09-06T07:18:04.719Z,981.48
2017-09-06T07:19:14.712Z,981.46
2017-09-06T07:20:24.987Z,981.5
2017-09-06T07:21:34.616Z,981.5
2017-09-06T07:22:44.562Z,981.48
2017-09-06T07:23:54.508Z,981.49
2017-09-06T07:25:04.780Z,981.48
2017-09-06T07:26:14.726Z,981.53
2017-09-06T07:27:24.997Z,981.54
2017-09-06T07:28:35.262Z,981.51
2017-09-06T07:29:45.534Z,981.52
2017-09-06T07:30:55.479Z,981.55
2017-09-06T07:32:05.759Z,981.48
2017-09-06T07:33:15.382Z,981.49
2017-09-06T07:34:25.650Z,981.47
2017-09-06T07:35:35.595Z,981.49
2017-09-06T07:36:45.880Z,981.48
2017-09-06T07:37:55.511Z,981.47
2017-09-06T07:39:05.134Z,981.45
2017-09-06T07:40:15.081Z,981.44
2017-09-06T07:41:25.032Z,981.51
2017-09-06T07:42:35.299Z,981.49
2017-09-06T07:43:45.577Z,981.54
2017-09-06T07:44:55.846Z,981.56
2017-09-06T07:46:05.797Z,981.59
2017-09-06T07:47:15.746Z,981.54
2017-09-06T07:48:25.696Z,981.48
2017-09-06T07:49:35.672Z,981.53
2017-09-06T07:50:45.946Z,981.5
2017-09-06T07:51:55.893Z,981.48
2017-09-06T07:53:05.838Z,981.47
2017-09-06T07:54:15.784Z,981.49
2017-09-06T07:55:26.058Z,981.46
2017-09-06T07:56:36.329Z,981.47
2017-09-06T07:57:46.289Z,981.47
2017-09-06T07:58:56.558Z,981.53
2017-09-06T08:00:06.827Z,981.54
2017-09-06T08:01:16.772Z,981.53
2017-09-06T08:02:26.725Z,981.54
2017-09-06T08:03:36.350Z,981.53
2017-09-06T08:04:46.619Z,981.52
2017-09-06T08:05:56.567Z,981.53
2017-09-06T08:07:06.838Z,981.58
2017-09-06T08:08:17.106Z,981.56
2017-09-06T08:09:27.065Z,981.56
2017-09-06T08:10:37.338Z,981.57
2017-09-06T08:11:47.613Z,981.58
2017-09-06T08:12:57.884Z,981.55
2017-09-06T08:14:08.153Z,981.57
2017-09-06T08:15:17.776Z,981.58
2017-09-06T08:16:27.722Z,981.58
2017-09-06T08:17:37.989Z,981.52
2017-09-06T08:18:47.940Z,981.54
2017-09-06T08:19:58.208Z,981.58
2017-09-06T08:21:08.158Z,981.54
2017-09-06T08:22:18.105Z,981.49
2017-09-06T08:23:28.059Z,981.47
2017-09-06T08:24:38.328Z,981.49
2017-09-06T08:25:48.272Z,981.54
2017-09-06T08:26:58.218Z,981.56
2017-09-06T08:28:08.162Z,981.48
2017-09-06T08:29:18.112Z,981.51
2017-09-06T08:30:28.062Z,981.49
2017-09-06T08:31:38.330Z,981.52
2017-09-06T08:32:48.598Z,981.49
2017-09-06T08:33:58.869Z,981.49
2017-09-06T08:35:08.502Z,981.5
2017-09-06T08:36:18.770Z,981.47
2017-09-06T08:37:29.036Z,981.56
2017-09-06T08:38:39.305Z,981.56
2017-09-06T08:39:49.255Z,981.56
2017-09-06T08:40:59.524Z,981.55
2017-09-06T08:42:08.828Z,981.55
2017-09-06T08:43:18.456Z,981.54
2017-09-06T08:44:28.402Z,981.57
2017-09-06T08:45:38.350Z,981.56
2017-09-06T08:46:48.619Z,981.55
2017-09-06T08:47:58.566Z,981.59
2017-09-06T08:49:08.834Z,981.57
2017-09-06T08:50:18.783Z,981.56
2017-09-06T08:51:29.060Z,981.61
2017-09-06T08:52:39.009Z,981.62
2017-09-06T08:53:49.277Z,981.64
2017-09-06T08:54:59.547Z,981.66
2017-09-06T08:56:09.844Z,981.67
2017-09-06T08:57:20.112Z,981.7
2017-09-06T08:58:30.379Z,981.68
2017-09-06T08:59:40.336Z,981.7
2017-09-06T09:00:50.620Z,981.7
2017-09-06T09:02:00.246Z,981.71
2017-09-06T09:03:10.521Z,981.72
2017-09-06T09:04:20.476Z,981.72
2017-09-06T09:05:30.749Z,981.69
2017-09-06T09:06:40.697Z,981.66
2017-09-06T09:07:50.679Z,981.67
2017-09-06T09:09:00.302Z,981.66
2017-09-06T09:10:10.572Z,981.7
2017-09-06T09:11:20.841Z,981.66
2017-09-06T09:12:30.789Z,981.67
2017-09-06T09:13:41.061Z,981.65
2017-09-06T09:14:50.687Z,981.64
2017-09-06T09:16:00.635Z,981.66
2017-09-06T09:17:10.585Z,981.65
2017-09-06T09:18:20.857Z,981.61
2017-09-06T09:19:31.141Z,981.65
2017-09-06T09:20:41.096Z,981.65
2017-09-06T09:21:51.046Z,981.62
2017-09-06T09:23:01.003Z,981.62
2017-09-06T09:24:10.629Z,981.61
2017-09-06T09:25:20.898Z,981.56
2017-09-06T09:26:30.847Z,981.55
2017-09-06T09:27:41.115Z,981.64
2017-09-06T09:28:50.746Z,981.59
2017-09-06T09:30:00.699Z,981.57
2017-09-06T09:31:10.325Z,981.6
2017-09-06T09:32:20.272Z,981.59
2017-09-06T09:33:30.218Z,981.57
2017-09-06T09:34:40.166Z,981.55
2017-09-06T09:35:49.795Z,981.57
2017-09-06T09:37:00.062Z,981.55
2017-09-06T09:38:10.331Z,981.57
2017-09-06T09:39:20.606Z,981.55
2017-09-06T09:40:30.233Z,981.54
2017-09-06T09:41:40.508Z,981.54
2017-09-06T09:42:50.773Z,981.52
2017-09-06T09:44:00.731Z,981.55
2017-09-06T09:45:11.011Z,981.51
2017-09-06T09:46:21.284Z,981.51
2017-09-06T09:47:31.552Z,981.49
2017-09-06T09:48:41.818Z,981.48
2017-09-06T09:49:51.772Z,981.47
2017-09-06T09:51:01.719Z,981.46
2017-09-06T09:52:11.667Z,981.46
2017-09-06T09:53:21.614Z,981.42
2017-09-06T09:54:31.560Z,981.46
2017-09-06T09:55:41.830Z,981.44
2017-09-06T09:56:52.105Z,981.44
2017-09-06T09:58:02.059Z,981.43
2017-09-06T09:59:12.331Z,981.42
2017-09-06T10:00:21.316Z,981.41
2017-09-06T10:01:31.270Z,981.38
2017-09-06T10:02:41.539Z,981.38
2017-09-06T10:03:51.485Z,981.34
2017-09-06T10:05:01.432Z,981.39
2017-09-06T10:06:11.707Z,981.37
2017-09-06T10:07:21.653Z,981.37
2017-09-06T10:08:31.924Z,981.35
2017-09-06T10:09:42.272Z,981.37
2017-09-06T10:10:52.218Z,981.35
2017-09-06T10:12:02.164Z,981.36
2017-09-06T10:13:12.111Z,981.36
2017-09-06T10:14:22.381Z,981.35
2017-09-06T10:15:32.331Z,981.38
2017-09-06T10:16:41.962Z,981.37
2017-09-06T10:17:51.913Z,981.37
2017-09-06T10:19:02.183Z,981.37
2017-09-06T10:20:12.128Z,981.34
2017-09-06T10:21:22.075Z,981.31
2017-09-06T10:22:32.346Z,981.33
2017-09-06T10:23:42.293Z,981.33
2017-09-06T10:24:52.239Z,981.3
2017-09-06T10:26:02.510Z,981.31
2017-09-06T10:27:12.136Z,981.36
2017-09-06T10:28:22.408Z,981.34
2017-09-06T10:29:32.676Z,981.32
2017-09-06T10:30:41.984Z,981.34
2017-09-06T10:31:52.261Z,981.35
2017-09-06T10:33:02.538Z,981.33
2017-09-06T10:34:12.491Z,981.38
2017-09-06T10:35:22.766Z,981.39
2017-09-06T10:36:32.716Z,981.34
2017-09-06T10:37:42.991Z,981.36
2017-09-06T10:38:53.262Z,981.35
2017-09-06T10:40:03.534Z,981.33
2017-09-06T10:41:13.809Z,981.32
2017-09-06T10:42:23.755Z,981.32
2017-09-06T10:43:33.387Z,981.35
2017-09-06T10:44:43.657Z,981.32
2017-09-06T10:45:53.936Z,981.32
2017-09-06T10:47:04.203Z,981.33
2017-09-06T10:48:14.150Z,981.36
2017-09-06T10:49:24.129Z,981.33
2017-09-06T10:50:34.399Z,981.33
2017-09-06T10:51:44.344Z,981.32
2017-09-06T10:52:54.618Z,981.3
2017-09-06T10:54:04.886Z,981.27
2017-09-06T10:55:14.513Z,981.32
2017-09-06T10:56:24.783Z,981.29
2017-09-06T10:57:35.071Z,981.29
2017-09-06T10:58:45.344Z,981.32
2017-09-06T10:59:55.301Z,981.28
2017-09-06T11:01:05.577Z,981.24
2017-09-06T11:02:15.217Z,981.29
2017-09-06T11:03:25.165Z,981.29
2017-09-06T11:04:35.435Z,981.3
2017-09-06T11:05:45.382Z,981.3
2017-09-06T11:06:55.652Z,981.21
2017-09-06T11:08:05.943Z,981.24
2017-09-06T11:09:15.892Z,981.21
2017-09-06T11:10:25.843Z,981.23
2017-09-06T11:11:36.157Z,981.25
2017-09-06T11:12:46.104Z,981.23
2017-09-06T11:13:56.377Z,981.25
2017-09-06T11:15:06.644Z,981.23
2017-09-06T11:16:16.599Z,981.22
2017-09-06T11:17:26.548Z,981.28
2017-09-06T11:18:36.817Z,981.29
2017-09-06T11:19:46.769Z,981.27
2017-09-06T11:20:56.719Z,981.28
2017-09-06T11:22:06.666Z,981.23
2017-09-06T11:23:16.938Z,981.28
2017-09-06T11:24:27.209Z,981.23
2017-09-06T11:25:37.485Z,981.23
2017-09-06T11:26:47.432Z,981.2
2017-09-06T11:27:57.380Z,981.2
2017-09-06T11:29:07.652Z,981.22
2017-09-06T11:30:17.922Z,981.25
2017-09-06T11:31:28.190Z,981.22
2017-09-06T11:32:38.468Z,981.23
2017-09-06T11:33:48.739Z,981.21
2017-09-06T11:34:58.687Z,981.25
2017-09-06T11:36:10.318Z,981.25
2017-09-06T11:37:19.948Z,981.22
2017-09-06T11:38:30.219Z,981.24
2017-09-06T11:39:40.488Z,981.25
2017-09-06T11:40:50.440Z,981.21
2017-09-06T11:42:00.387Z,981.25
2017-09-06T11:43:10.655Z,981.22
2017-09-06T11:44:20.926Z,981.22
2017-09-06T11:45:31.203Z,981.26
2017-09-06T11:46:41.625Z,981.22
2017-09-06T11:47:51.907Z,981.21
2017-09-06T11:49:01.855Z,981.19
2017-09-06T11:50:11.803Z,981.22
2017-09-06T11:51:22.090Z,981.19
2017-09-06T11:52:32.365Z,981.2
2017-09-06T11:53:41.349Z,981.13
2017-09-06T11:54:51.297Z,981.18
2017-09-06T11:56:01.249Z,981.17
2017-09-06T11:57:11.197Z,981.18
2017-09-06T11:58:20.823Z,981.15
2017-09-06T11:59:31.096Z,981.16
2017-09-06T12:00:41.045Z,981.16
2017-09-06T12:01:50.682Z,981.16
2017-09-06T12:03:00.625Z,981.15
2017-09-06T12:04:10.577Z,981.15
2017-09-06T12:05:20.542Z,981.15
2017-09-06T12:06:30.813Z,981.12
2017-09-06T12:07:40.439Z,981.17
2017-09-06T12:08:49.429Z,981.15
2017-09-06T12:09:59.702Z,981.14
2017-09-06T12:11:09.650Z,981.15
2017-09-06T12:12:19.921Z,981.12
2017-09-06T12:13:29.871Z,981.1
2017-09-06T12:14:39.497Z,981.09
2017-09-06T12:15:49.768Z,981.07
2017-09-06T12:16:59.077Z,981.09
2017-09-06T12:18:09.032Z,981.08
2017-09-06T12:19:19.305Z,981.12
2017-09-06T12:20:29.579Z,981.11
2017-09-06T12:21:39.526Z,981.06
2017-09-06T12:22:49.150Z,981.08
2017-09-06T12:23:59.425Z,981.05
2017-09-06T12:25:09.707Z,981.04
2017-09-06T12:26:19.681Z,981.06
2017-09-06T12:27:29.955Z,981.09
2017-09-06T12:28:40.233Z,981.08
2017-09-06T12:29:49.642Z,981.11
2017-09-06T12:30:59.591Z,981.1
2017-09-06T12:32:09.218Z,981.1
2017-09-06T12:33:19.488Z,981.09
2017-09-06T12:34:29.156Z,981.11
2017-09-06T12:35:39.462Z,981.09
2017-09-06T12:36:49.093Z,981.08
2017-09-06T12:37:59.363Z,981.06
2017-09-06T12:39:08.667Z,981.03
2017-09-06T12:40:18.939Z,981.05
2017-09-06T12:41:28.884Z,981.02
2017-09-06T12:42:39.153Z,981.03
2017-09-06T12:43:49.106Z,980.99
2017-09-06T12:44:59.374Z,980.98
2017-09-06T12:46:09.321Z,981.03
2017-09-06T12:47:19.273Z,980.98
2017-09-06T12:48:29.543Z,980.98
2017-09-06T12:49:39.812Z,980.97
2017-09-06T12:50:50.083Z,980.98
2017-09-06T12:51:59.785Z,981.01
2017-09-06T12:53:09.329Z,981.01
2017-09-06T12:54:19.621Z,981.02
2017-09-06T12:55:29.922Z,981
2017-09-06T12:56:39.873Z,981.02
2017-09-06T12:57:50.157Z,981.01
2017-09-06T12:59:00.108Z,980.98
2017-09-06T13:00:09.732Z,981.05
2017-09-06T13:01:19.679Z,981.02
2017-09-06T13:02:29.629Z,980.99
2017-09-06T13:03:39.577Z,981
2017-09-06T13:04:49.856Z,981.02
2017-09-06T13:06:00.125Z,981.03
2017-09-06T13:07:09.757Z,981.01
2017-09-06T13:08:19.712Z,980.99
2017-09-06T13:09:29.993Z,981.01
2017-09-06T13:10:39.941Z,981.04
2017-09-06T13:11:49.889Z,981.03
2017-09-06T13:13:00.158Z,980.98
2017-09-06T13:14:10.106Z,981.02
2017-09-06T13:15:20.052Z,981.01
2017-09-06T13:16:29.998Z,981
2017-09-06T13:17:40.303Z,981
2017-09-06T13:18:50.249Z,980.99
2017-09-06T13:20:00.516Z,980.92
2017-09-06T13:21:10.464Z,980.95
2017-09-06T13:22:20.744Z,980.9
2017-09-06T13:23:31.016Z,980.9
2017-09-06T13:24:40.961Z,980.95
2017-09-06T13:25:50.586Z,980.93
2017-09-06T13:27:00.858Z,980.85
2017-09-06T13:28:10.806Z,980.9
2017-09-06T13:29:20.753Z,980.88
2017-09-06T13:30:30.377Z,980.9
2017-09-06T13:31:42.649Z,980.9
2017-09-06T13:32:52.605Z,980.92
2017-09-06T13:34:02.551Z,980.9
2017-09-06T13:35:12.183Z,980.92
2017-09-06T13:36:21.808Z,980.92
2017-09-06T13:37:31.759Z,980.89
2017-09-06T13:38:41.707Z,980.89
2017-09-06T13:39:51.656Z,980.91
2017-09-06T13:41:01.603Z,980.89
2017-09-06T13:42:11.230Z,980.82
2017-09-06T13:43:21.178Z,980.89
2017-09-06T13:44:31.449Z,980.85
2017-09-06T13:45:41.080Z,980.8
2017-09-06T13:46:51.350Z,980.87
2017-09-06T13:48:01.620Z,980.86
2017-09-06T13:49:11.573Z,980.88
2017-09-06T13:50:21.520Z,980.82
2017-09-06T13:51:31.791Z,980.82
2017-09-06T13:52:41.742Z,980.82
2017-09-06T13:53:51.689Z,980.86
2017-09-06T13:55:01.975Z,980.82
2017-09-06T13:56:12.245Z,980.8
2017-09-06T13:57:22.194Z,980.79
2017-09-06T13:58:31.498Z,980.83
2017-09-06T13:59:41.772Z,980.72
2017-09-06T14:00:50.755Z,980.7
2017-09-06T14:02:01.023Z,980.74
2017-09-06T14:03:11.293Z,980.73
2017-09-06T14:04:21.562Z,980.78
2017-09-06T14:05:31.512Z,980.79
2017-09-06T14:06:41.782Z,980.78
2017-09-06T14:07:51.407Z,980.72
2017-09-06T14:09:01.680Z,980.76
2017-09-06T14:10:11.629Z,980.78
2017-09-06T14:11:21.578Z,980.78
2017-09-06T14:12:31.846Z,980.77
2017-09-06T14:13:41.796Z,980.81
2017-09-06T14:14:51.749Z,980.8
2017-09-06T14:16:02.025Z,980.8
2017-09-06T14:17:12.294Z,980.82
2017-09-06T14:18:21.922Z,980.8
2017-09-06T14:19:31.871Z,980.8
2017-09-06T14:20:42.141Z,980.74
2017-09-06T14:21:52.411Z,980.83
2017-09-06T14:23:02.359Z,980.75
2017-09-06T14:24:11.990Z,980.77
2017-09-06T14:25:21.941Z,980.8
2017-09-06T14:26:31.890Z,980.81
2017-09-06T14:27:42.172Z,980.8
2017-09-06T14:28:52.444Z,980.8
2017-09-06T14:30:02.717Z,980.79
2017-09-06T14:31:12.019Z,980.77
2017-09-06T14:32:21.966Z,980.77
2017-09-06T14:33:31.945Z,980.81
2017-09-06T14:34:41.252Z,980.77
2017-09-06T14:35:51.200Z,980.83
2017-09-06T14:37:01.474Z,980.85
2017-09-06T14:38:11.743Z,980.85